SBOSBO AMM / OJAI
Speedbird OnlineSpeedbird Online AMM / OJAI

Queen Alia International Airport
19:07 23°C

Location Amman, Jordan
Latitude: 31.7226009369
Longitude: 35.9931983948
Local Time 19:07 on 30 May 2024
UTC +3 hours (Asia/Amman)
Currency £1 equals JOD 0.90
METAR OJAI 301500Z 29014KT 5000 HZ NSC 25/11 Q1015 NOSIG
TAF TAF OJAI 301049Z 3012/3118 29012KT 7000 NSC PROB30 3012/3017 31016KT 4000 BLDU PROB30 TEMPO 3109/3117 31018KT 4000 BLDU
Weather As Of 30 May 2024 19:07
Description Dust
Wind 30 km/h from West (290°)
Cloud Cover 0%
Precipitation Rain: none, Snow: none
Sunrise 05:32
Sunset 19:35
NOTAM 11 active NOTAM
Rotations During the last 90 days there were
39 flights from LHR
1 flights from AMM
45 flights to LHR
1 flights to AMM
Lounges Royal Jordanian Crown Lounge, Main Terminal
Web Wikipedia
Codes IATA: AMM
ICAO: OJAI
Altitude 730 Meter / 2395 Feet
Distance 3,647 KM / 2,266 Miles
from London.
Runways
RunwayLength (m)Surface
08L3660Asphalt
08R3660Concrete
26L3660Concrete
26R3660Asphalt
Radio
TypeDescriptionFrequency
APPAMMAN APP128.9
ATISATIS127.6
GNDGND121.9
TWRTWR119.8
Live ATC



Support Speedbird Online

© 2017-2024 Speedbird Online